Aviation Digital Data Service (ADDS)

Output produced by TAFs form (0952 UTC 23 April 2017)
found at http://www.aviationweather.gov/adds/tafs/
 
KBOS 230820Z 2308/2412 30009KT P6SM SKC 
     FM231600 06006KT P6SM SKC 
     FM231700 11006KT P6SM SKC 
     FM232100 15009KT P6SM SKC 
     FM240000 19009KT P6SM SKC
       
KLGA 230830Z 2309/2406 02007KT P6SM SCT250 
     FM231400 05007KT P6SM SCT250 
     FM232000 17009KT P6SM BKN250 
     FM240200 19005KT P6SM BKN250
       
KEWR 230830Z 2309/2412 36007KT P6SM SCT250 
     FM231400 03006KT P6SM SCT250 
     FM231800 14006KT P6SM BKN250 
     FM232100 17007KT P6SM BKN250 
     FM240300 19004KT P6SM BKN200
       
KJFK 230830Z 2309/2412 36009KT P6SM SCT250 
     FM231400 04007KT P6SM SCT250 
     FM231700 18010KT P6SM BKN250 
     FM240100 19007KT P6SM BKN250 
     FM240900 16004KT P6SM BKN200
       
KPHL 230520Z 2306/2412 36007KT P6SM BKN250 
     FM231200 03006KT P6SM SCT250 
     FM231600 07005KT P6SM SCT250 
     FM231900 14005KT P6SM SCT250 
     FM240700 09004KT P6SM OVC120
       
KIAD 230835Z 2309/2412 36006KT P6SM BKN120 BKN200 
     FM231200 36005KT P6SM BKN200 
     FM231800 06005KT P6SM BKN130 
     FM240300 VRB03KT 6SM -RA BR OVC045 
     FM240600 04004KT 6SM -RA BR OVC030 
     FM240900 03005KT 6SM RA BR OVC015
       
KBWI 230836Z 2309/2412 35006KT P6SM BKN120 BKN200 
     FM231200 06005KT P6SM BKN200 
     FM240600 VRB03KT 6SM -RA BR OVC060 
     FM241000 04005KT 6SM -RA BR OVC030
       
KDCA 230838Z 2309/2406 01008KT P6SM BKN120 BKN200 
     FM231700 05005KT P6SM OVC150 
     FM240300 06004KT 6SM -RA BR OVC050
       
KCLT 230901Z 2309/2406 06011KT P6SM -SHRA SCT007 BKN070 OVC110 
     TEMPO 2309/2312 BKN007 OVC070 
     FM231200 05010KT 5SM SHRA OVC005 
     FM231700 05011G21KT 6SM -SHRA BR OVC008 
     FM232300 05011KT 2SM SHRA BR OVC003 
     PROB30 2323/2402 3/4SM TSRA BR OVC003CB
       
KATL 230950Z 2310/2412 10008KT P6SM -RA VCTS SCT020 BKN035CB 
     TEMPO 2312/2316 5SM -SHRA BKN015 
     FM231600 20005KT 5SM -RA BR OVC012 
     TEMPO 2316/2320 3SM TSRA BR BKN008CB 
     FM232000 28008KT 3SM -SHRA BR BKN012 
     FM232300 30007KT P6SM VCSH BKN012 
     FM240300 30007KT 5SM -DZ BR OVC008
       
KMCO 230857Z 2309/2406 VRB03KT P6SM SCT060 BKN140 OVC250 
     FM231400 14005KT P6SM SCT030 BKN100 
     FM231800 12007KT P6SM VCSH SCT035 BKN060 
     FM240400 VRB04KT P6SM SCT035 BKN200
       
KTPA 230906Z 2309/2406 VRB03KT P6SM FEW050 BKN250 
     FM231600 24007KT P6SM SCT030 BKN070 
     FM232000 28009KT P6SM SCT050 BKN250 
     FM240100 30007KT P6SM FEW050 BKN250
       
KFLL 230859Z 2309/2406 11013KT P6SM RA VCSH SCT015 BKN030 OVC100 
     TEMPO 2309/2311 3SM RA SCT005 BKN015 OVC025 
     FM231200 14011KT 5SM SHRA VCTS SCT020CB BKN035 OVC050 
     FM232300 24005KT P6SM VCSH FEW015 SCT030 BKN120
       
KMIA 230859Z 2309/2406 15010KT P6SM VCSH SCT015 BKN025 
     FM231200 15010KT 5SM SHRA VCTS SCT020CB BKN030 OVC050 
     FM232000 24010KT P6SM VCSH FEW015 SCT030 BKN120
       
KDTW 230902Z 2309/2412 VRB03KT P6SM SKC 
     FM232100 16006KT P6SM SKC 
     FM240600 03008KT P6SM SKC
       
KMSP 230900Z 2309/2412 VRB04KT P6SM FEW250 
     FM231700 08006KT P6SM FEW250 
     FM232000 12006KT P6SM FEW250 
     FM240600 13006KT P6SM SCT250 
     FM240900 17007KT P6SM BKN200 WS020/21040KT
       
KORD 230900Z 2309/2412 VRB03KT P6SM SKC 
     FM231400 30005KT P6SM SKC 
     FM232000 09007KT P6SM FEW250
       
KMDW 230900Z 2309/2406 VRB03KT P6SM SKC 
     FM231400 30005KT P6SM SKC 
     FM231900 09007KT P6SM FEW250
       
KMEM 230859Z 2309/2406 36010KT P6SM -SHRA OVC013 
     TEMPO 2309/2310 4SM -SHRA SCT008 
     FM231500 36012G18KT P6SM OVC012 
     FM231800 36014G20KT P6SM OVC025 
     FM232100 36014G20KT P6SM BKN040 
     FM240100 01007KT P6SM SKC
       
KDFW 230909Z 2309/2412 31008KT P6SM SKC 
     FM231600 35015KT P6SM SKC 
     FM240800 15004KT P6SM SKC
       
KIAH 230902Z 2309/2412 33013KT P6SM SCT100 
     FM240000 35008KT P6SM SKC
       
KDEN 230902Z 2309/2412 18016KT P6SM FEW250 
     FM231200 24010KT P6SM SCT250 
     FM231900 13009KT P6SM SCT250 
     FM240100 15007KT P6SM SCT250 
     FM240600 19012KT P6SM BKN250 
     FM240900 25012KT P6SM FEW140 BKN220
       
KSLC 230934Z 2310/2412 15006KT P6SM BKN200 
     FM231200 17011KT P6SM BKN200 
     FM231800 30009KT P6SM SCT100 BKN120 
     FM232200 35011KT P6SM VCSH SCT060 BKN100 
     FM240400 16009KT P6SM SCT070 BKN120
       
KSEA 230857Z 2309/2412 18004KT P6SM SCT025 SCT045 
     FM231200 18006KT P6SM VCSH SCT020 BKN030 OVC045 
     FM231600 20006KT P6SM -RA SCT015 OVC025 
     FM231900 21009KT 6SM -RA BR SCT012 BKN018 OVC025 
     FM240000 21012G18KT P6SM -SHRA SCT018 BKN030 OVC045 
     FM240900 18006KT P6SM VCSH SCT025 BKN040 OVC060
       
KSFO 230902Z 2309/2412 29014KT P6SM FEW015 SCT220 
     TEMPO 2312/2316 BKN020 
     FM231600 28018G25KT P6SM FEW025 SCT040 
     FM231900 28020G28KT P6SM FEW035 
     FM232100 28023G29KT P6SM SCT040 
     FM240400 28015KT P6SM SCT030
       
KLAX 230950Z 2310/2412 21006KT P6SM SCT200 
     FM231100 12005KT 5SM BR OVC010 
     FM231800 25010KT P6SM FEW012 
     FM232100 26015KT P6SM SKC 
     FM240400 26008KT P6SM SKC 
     FM240900 VRB03KT P6SM SKC
       
KSAN 230838Z 2309/2412 VRB04KT P6SM BKN007 
     FM231030 VRB04KT 3SM BR BKN004 
     FM231500 VRB04KT 5SM HZ BKN008 
     FM231700 24010KT P6SM SCT012 
     FM240230 VRB05KT P6SM BKN012
       
KLAS 230846Z 2309/2406 20008KT P6SM BKN250 
     FM231700 20015G25KT P6SM SCT250 
     FM232100 22022G32KT P6SM SCT250 
     FM240200 22014G24KT P6SM SCT250 
     FM240400 22012KT P6SM SCT250
       
KPHX 230909Z 2309/2406 10007KT P6SM SCT250 
     TEMPO 2315/2318 11010G21KT 
     FM232300 23009G18KT P6SM BKN250
       
KSDF 230520Z 2306/2412 03010KT P6SM SCT045 
     FM231400 05012G22KT P6SM SCT045 
     FM232300 03008KT P6SM FEW070
       
KIND 230801Z 2308/2412 05009KT P6SM FEW250 
     FM232100 02012KT P6SM FEW250 
     FM240000 03007KT P6SM SKC